sensor_id;sensor_type;location;lat;lon;timestamp;temperature;humidity
13589;DHT22;6865;52.552;13.434;2023-08-08T00:00:28;14.40;99.90
13589;DHT22;6865;52.552;13.434;2023-08-08T00:02:54;14.40;99.90
13589;DHT22;6865;52.552;13.434;2023-08-08T00:05:21;14.30;99.90
13589;DHT22;6865;52.552;13.434;2023-08-08T00:07:48;14.20;99.90
13589;DHT22;6865;52.552;13.434;2023-08-08T00:10:14;14.20;99.90
13589;DHT22;6865;52.552;13.434;2023-08-08T00:12:41;14.20;99.90
13589;DHT22;6865;52.552;13.434;2023-08-08T00:15:08;14.20;99.90
13589;DHT22;6865;52.552;13.434;2023-08-08T00:17:35;14.10;99.90
13589;DHT22;6865;52.552;13.434;2023-08-08T00:20:02;14.10;99.90
13589;DHT22;6865;52.552;13.434;2023-08-08T00:22:29;14.10;99.90
13589;DHT22;6865;52.552;13.434;2023-08-08T00:24:56;13.90;99.90
13589;DHT22;6865;52.552;13.434;2023-08-08T00:27:23;14.00;99.90
13589;DHT22;6865;52.552;13.434;2023-08-08T00:29:50;14.00;99.90
13589;DHT22;6865;52.552;13.434;2023-08-08T00:32:17;13.90;99.90
13589;DHT22;6865;52.552;13.434;2023-08-08T00:34:44;13.90;99.90
13589;DHT22;6865;52.552;13.434;2023-08-08T00:37:11;13.90;99.90
13589;DHT22;6865;52.552;13.434;2023-08-08T00:39:37;13.90;99.90
13589;DHT22;6865;52.552;13.434;2023-08-08T00:42:05;13.90;99.90
13589;DHT22;6865;52.552;13.434;2023-08-08T00:44:32;13.80;99.90
13589;DHT22;6865;52.552;13.434;2023-08-08T00:46:59;13.80;99.90
13589;DHT22;6865;52.552;13.434;2023-08-08T00:49:26;13.80;99.90
13589;DHT22;6865;52.552;13.434;2023-08-08T00:51:53;13.50;99.90
13589;DHT22;6865;52.552;13.434;2023-08-08T00:54:19;13.70;99.90
13589;DHT22;6865;52.552;13.434;2023-08-08T00:56:47;13.70;99.90
13589;DHT22;6865;52.552;13.434;2023-08-08T00:59:16;13.70;99.90
13589;DHT22;6865;52.552;13.434;2023-08-08T01:01:45;13.70;99.90
13589;DHT22;6865;52.552;13.434;2023-08-08T01:04:12;13.60;99.90
13589;DHT22;6865;52.552;13.434;2023-08-08T01:09:25;13.60;99.90
13589;DHT22;6865;52.552;13.434;2023-08-08T01:11:55;13.50;99.90
13589;DHT22;6865;52.552;13.434;2023-08-08T01:14:24;13.70;99.90
13589;DHT22;6865;52.552;13.434;2023-08-08T01:16:53;13.50;99.90
13589;DHT22;6865;52.552;13.434;2023-08-08T01:19:28;13.50;99.90
13589;DHT22;6865;52.552;13.434;2023-08-08T01:21:58;13.10;99.90
13589;DHT22;6865;52.552;13.434;2023-08-08T01:24:27;13.40;99.90
13589;DHT22;6865;52.552;13.434;2023-08-08T01:26:56;13.40;99.90
13589;DHT22;6865;52.552;13.434;2023-08-08T01:29:23;13.40;99.90
13589;DHT22;6865;52.552;13.434;2023-08-08T01:31:50;13.40;99.90
13589;DHT22;6865;52.552;13.434;2023-08-08T01:34:17;13.30;99.90
13589;DHT22;6865;52.552;13.434;2023-08-08T01:39:27;13.30;99.90
13589;DHT22;6865;52.552;13.434;2023-08-08T01:41:56;13.30;99.90
13589;DHT22;6865;52.552;13.434;2023-08-08T01:44:26;13.30;99.90
13589;DHT22;6865;52.552;13.434;2023-08-08T01:46:53;13.30;99.90
13589;DHT22;6865;52.552;13.434;2023-08-08T01:49:20;13.30;99.90
13589;DHT22;6865;52.552;13.434;2023-08-08T01:51:47;13.30;99.90
13589;DHT22;6865;52.552;13.434;2023-08-08T01:54:15;13.30;99.90
13589;DHT22;6865;52.552;13.434;2023-08-08T01:56:41;13.30;99.90
13589;DHT22;6865;52.552;13.434;2023-08-08T01:59:08;13.30;99.90
13589;DHT22;6865;52.552;13.434;2023-08-08T02:01:35;13.30;99.90
13589;DHT22;6865;52.552;13.434;2023-08-08T02:04:02;13.30;99.90
13589;DHT22;6865;52.552;13.434;2023-08-08T02:06:29;13.40;99.90
13589;DHT22;6865;52.552;13.434;2023-08-08T02:08:56;13.40;99.90
13589;DHT22;6865;52.552;13.434;2023-08-08T02:11:22;13.30;99.90
13589;DHT22;6865;52.552;13.434;2023-08-08T02:13:49;13.30;99.90
13589;DHT22;6865;52.552;13.434;2023-08-08T02:16:16;13.40;99.90
13589;DHT22;6865;52.552;13.434;2023-08-08T02:18:42;13.40;99.90
13589;DHT22;6865;52.552;13.434;2023-08-08T02:21:09;13.30;99.90
13589;DHT22;6865;52.552;13.434;2023-08-08T02:23:36;13.40;99.90
13589;DHT22;6865;52.552;13.434;2023-08-08T02:26:03;13.50;99.90
13589;DHT22;6865;52.552;13.434;2023-08-08T02:28:30;13.50;99.90
13589;DHT22;6865;52.552;13.434;2023-08-08T02:30:56;13.50;99.90
13589;DHT22;6865;52.552;13.434;2023-08-08T02:33:23;13.50;99.90
13589;DHT22;6865;52.552;13.434;2023-08-08T02:35:50;13.40;99.90
13589;DHT22;6865;52.552;13.434;2023-08-08T02:38:16;13.40;99.90
13589;DHT22;6865;52.552;13.434;2023-08-08T02:40:43;13.40;99.90
13589;DHT22;6865;52.552;13.434;2023-08-08T02:43:10;13.30;99.90
13589;DHT22;6865;52.552;13.434;2023-08-08T02:45:37;13.30;99.90
13589;DHT22;6865;52.552;13.434;2023-08-08T02:48:04;13.20;99.90
13589;DHT22;6865;52.552;13.434;2023-08-08T02:50:31;13.10;99.90
13589;DHT22;6865;52.552;13.434;2023-08-08T02:52:58;13.10;99.90
13589;DHT22;6865;52.552;13.434;2023-08-08T02:55:25;13.10;99.90
13589;DHT22;6865;52.552;13.434;2023-08-08T02:57:51;13.00;99.90
13589;DHT22;6865;52.552;13.434;2023-08-08T03:00:18;13.00;99.90
13589;DHT22;6865;52.552;13.434;2023-08-08T03:02:45;13.00;99.90
13589;DHT22;6865;52.552;13.434;2023-08-08T03:05:11;13.00;99.90
13589;DHT22;6865;52.552;13.434;2023-08-08T03:07:38;13.00;99.90
13589;DHT22;6865;52.552;13.434;2023-08-08T03:10:05;13.00;99.90
13589;DHT22;6865;52.552;13.434;2023-08-08T03:12:32;12.90;99.90
13589;DHT22;6865;52.552;13.434;2023-08-08T03:14:59;12.90;99.90
13589;DHT22;6865;52.552;13.434;2023-08-08T03:17:26;12.90;99.90
13589;DHT22;6865;52.552;13.434;2023-08-08T03:19:52;12.90;99.90
13589;DHT22;6865;52.552;13.434;2023-08-08T03:22:19;12.80;99.90
13589;DHT22;6865;52.552;13.434;2023-08-08T03:24:46;12.90;99.90
13589;DHT22;6865;52.552;13.434;2023-08-08T03:27:12;12.80;99.90
13589;DHT22;6865;52.552;13.434;2023-08-08T03:29:39;12.80;99.90
13589;DHT22;6865;52.552;13.434;2023-08-08T03:32:06;12.90;99.90
13589;DHT22;6865;52.552;13.434;2023-08-08T03:34:33;12.80;99.90
13589;DHT22;6865;52.552;13.434;2023-08-08T03:37:00;12.80;99.90
13589;DHT22;6865;52.552;13.434;2023-08-08T03:39:26;12.80;99.90
13589;DHT22;6865;52.552;13.434;2023-08-08T03:41:53;12.80;99.90
13589;DHT22;6865;52.552;13.434;2023-08-08T03:44:20;12.80;99.90
13589;DHT22;6865;52.552;13.434;2023-08-08T03:46:47;12.80;99.90
13589;DHT22;6865;52.552;13.434;2023-08-08T03:49:13;12.90;99.90
13589;DHT22;6865;52.552;13.434;2023-08-08T03:51:40;12.80;99.90
13589;DHT22;6865;52.552;13.434;2023-08-08T03:54:07;12.90;99.90
13589;DHT22;6865;52.552;13.434;2023-08-08T03:56:34;13.00;99.90
13589;DHT22;6865;52.552;13.434;2023-08-08T03:59:00;13.00;99.90
13589;DHT22;6865;52.552;13.434;2023-08-08T04:01:27;13.00;99.90
13589;DHT22;6865;52.552;13.434;2023-08-08T04:03:54;12.90;99.90
13589;DHT22;6865;52.552;13.434;2023-08-08T04:06:20;13.00;99.90
13589;DHT22;6865;52.552;13.434;2023-08-08T04:08:47;13.00;99.90
13589;DHT22;6865;52.552;13.434;2023-08-08T04:11:13;13.10;99.90
13589;DHT22;6865;52.552;13.434;2023-08-08T04:13:40;13.10;99.90
13589;DHT22;6865;52.552;13.434;2023-08-08T04:16:07;13.10;99.90
13589;DHT22;6865;52.552;13.434;2023-08-08T04:18:33;13.10;99.90
13589;DHT22;6865;52.552;13.434;2023-08-08T04:21:00;13.20;99.90
13589;DHT22;6865;52.552;13.434;2023-08-08T04:23:27;13.20;99.90
13589;DHT22;6865;52.552;13.434;2023-08-08T04:25:54;13.10;99.90
13589;DHT22;6865;52.552;13.434;2023-08-08T04:28:20;13.10;99.90
13589;DHT22;6865;52.552;13.434;2023-08-08T04:30:47;13.10;99.90
13589;DHT22;6865;52.552;13.434;2023-08-08T04:33:14;13.20;99.90
13589;DHT22;6865;52.552;13.434;2023-08-08T04:35:40;13.20;99.90
13589;DHT22;6865;52.552;13.434;2023-08-08T04:38:08;13.20;99.90
13589;DHT22;6865;52.552;13.434;2023-08-08T04:40:35;13.10;99.90
13589;DHT22;6865;52.552;13.434;2023-08-08T04:43:03;13.20;99.90
13589;DHT22;6865;52.552;13.434;2023-08-08T04:45:30;13.30;99.90
13589;DHT22;6865;52.552;13.434;2023-08-08T04:47:56;13.30;99.90
13589;DHT22;6865;52.552;13.434;2023-08-08T04:50:24;13.30;99.90
13589;DHT22;6865;52.552;13.434;2023-08-08T04:52:51;13.30;99.90
13589;DHT22;6865;52.552;13.434;2023-08-08T04:55:17;13.40;99.90
13589;DHT22;6865;52.552;13.434;2023-08-08T04:57:44;13.40;99.90
13589;DHT22;6865;52.552;13.434;2023-08-08T05:00:13;13.40;99.90
13589;DHT22;6865;52.552;13.434;2023-08-08T05:02:40;13.50;99.90
13589;DHT22;6865;52.552;13.434;2023-08-08T05:05:08;13.60;99.90
13589;DHT22;6865;52.552;13.434;2023-08-08T05:07:35;13.70;99.90
13589;DHT22;6865;52.552;13.434;2023-08-08T05:10:05;13.70;99.90
13589;DHT22;6865;52.552;13.434;2023-08-08T05:12:31;13.70;99.90
13589;DHT22;6865;52.552;13.434;2023-08-08T05:14:58;13.70;99.90
13589;DHT22;6865;52.552;13.434;2023-08-08T05:17:25;13.60;99.90
13589;DHT22;6865;52.552;13.434;2023-08-08T05:19:51;13.60;99.90
13589;DHT22;6865;52.552;13.434;2023-08-08T05:22:18;13.70;99.90
13589;DHT22;6865;52.552;13.434;2023-08-08T05:24:45;13.70;99.90
13589;DHT22;6865;52.552;13.434;2023-08-08T05:27:11;13.70;99.90
13589;DHT22;6865;52.552;13.434;2023-08-08T05:29:38;13.70;99.90
13589;DHT22;6865;52.552;13.434;2023-08-08T05:32:06;13.70;99.90
13589;DHT22;6865;52.552;13.434;2023-08-08T05:34:36;13.80;99.90
13589;DHT22;6865;52.552;13.434;2023-08-08T05:37:03;13.80;99.90
13589;DHT22;6865;52.552;13.434;2023-08-08T05:39:43;13.80;99.90
13589;DHT22;6865;52.552;13.434;2023-08-08T05:42:09;13.90;99.90
13589;DHT22;6865;52.552;13.434;2023-08-08T05:44:36;14.00;99.90
13589;DHT22;6865;52.552;13.434;2023-08-08T05:47:03;14.30;99.90
13589;DHT22;6865;52.552;13.434;2023-08-08T05:49:30;14.40;99.90
13589;DHT22;6865;52.552;13.434;2023-08-08T05:51:56;14.70;99.90
13589;DHT22;6865;52.552;13.434;2023-08-08T05:54:24;14.80;99.90
13589;DHT22;6865;52.552;13.434;2023-08-08T05:56:50;15.00;99.90
13589;DHT22;6865;52.552;13.434;2023-08-08T05:59:17;15.00;99.90
13589;DHT22;6865;52.552;13.434;2023-08-08T06:01:44;15.00;99.90
13589;DHT22;6865;52.552;13.434;2023-08-08T06:04:12;14.80;99.90
13589;DHT22;6865;52.552;13.434;2023-08-08T06:06:38;14.90;99.90
13589;DHT22;6865;52.552;13.434;2023-08-08T06:09:05;14.90;99.90
13589;DHT22;6865;52.552;13.434;2023-08-08T06:11:32;14.80;99.90
13589;DHT22;6865;52.552;13.434;2023-08-08T06:13:58;14.90;99.90
13589;DHT22;6865;52.552;13.434;2023-08-08T06:16:32;14.90;99.90
13589;DHT22;6865;52.552;13.434;2023-08-08T06:18:59;15.00;99.90
13589;DHT22;6865;52.552;13.434;2023-08-08T06:21:26;15.00;99.90
13589;DHT22;6865;52.552;13.434;2023-08-08T06:23:52;15.00;99.90
13589;DHT22;6865;52.552;13.434;2023-08-08T06:26:23;15.10;99.90
13589;DHT22;6865;52.552;13.434;2023-08-08T06:28:50;15.10;99.90
13589;DHT22;6865;52.552;13.434;2023-08-08T06:31:18;15.20;99.90
13589;DHT22;6865;52.552;13.434;2023-08-08T06:33:45;15.20;99.90
13589;DHT22;6865;52.552;13.434;2023-08-08T06:36:12;15.30;99.90
13589;DHT22;6865;52.552;13.434;2023-08-08T06:38:39;15.50;99.90
13589;DHT22;6865;52.552;13.434;2023-08-08T06:41:05;15.70;99.90
13589;DHT22;6865;52.552;13.434;2023-08-08T06:43:32;15.60;99.90
13589;DHT22;6865;52.552;13.434;2023-08-08T06:45:59;15.60;99.90
13589;DHT22;6865;52.552;13.434;2023-08-08T06:48:25;15.60;99.90
13589;DHT22;6865;52.552;13.434;2023-08-08T06:50:52;15.60;99.90
13589;DHT22;6865;52.552;13.434;2023-08-08T06:53:19;15.70;99.90
13589;DHT22;6865;52.552;13.434;2023-08-08T06:55:46;15.80;99.90
13589;DHT22;6865;52.552;13.434;2023-08-08T06:58:12;15.90;99.90
13589;DHT22;6865;52.552;13.434;2023-08-08T07:00:39;15.80;99.90
13589;DHT22;6865;52.552;13.434;2023-08-08T07:03:06;15.50;99.90
13589;DHT22;6865;52.552;13.434;2023-08-08T07:05:33;15.50;99.90
13589;DHT22;6865;52.552;13.434;2023-08-08T07:07:59;15.60;99.90
13589;DHT22;6865;52.552;13.434;2023-08-08T07:10:27;15.70;99.90
13589;DHT22;6865;52.552;13.434;2023-08-08T07:12:54;16.00;99.90
13589;DHT22;6865;52.552;13.434;2023-08-08T07:15:22;15.90;99.90
13589;DHT22;6865;52.552;13.434;2023-08-08T07:17:49;16.10;99.90
13589;DHT22;6865;52.552;13.434;2023-08-08T07:20:15;16.30;99.90
13589;DHT22;6865;52.552;13.434;2023-08-08T07:22:42;16.40;99.90
13589;DHT22;6865;52.552;13.434;2023-08-08T07:25:09;16.30;99.90
13589;DHT22;6865;52.552;13.434;2023-08-08T07:27:35;16.30;99.90
13589;DHT22;6865;52.552;13.434;2023-08-08T07:30:03;16.20;99.90
13589;DHT22;6865;52.552;13.434;2023-08-08T07:32:29;16.50;99.90
13589;DHT22;6865;52.552;13.434;2023-08-08T07:34:59;16.30;99.90
13589;DHT22;6865;52.552;13.434;2023-08-08T07:37:27;16.20;99.90
13589;DHT22;6865;52.552;13.434;2023-08-08T07:39:54;16.20;99.90
13589;DHT22;6865;52.552;13.434;2023-08-08T07:42:21;16.10;99.90
13589;DHT22;6865;52.552;13.434;2023-08-08T07:44:48;16.00;99.90
13589;DHT22;6865;52.552;13.434;2023-08-08T07:47:14;16.20;99.90
13589;DHT22;6865;52.552;13.434;2023-08-08T07:49:41;16.40;99.90
13589;DHT22;6865;52.552;13.434;2023-08-08T07:52:08;16.60;99.90
13589;DHT22;6865;52.552;13.434;2023-08-08T07:54:34;16.70;99.90
13589;DHT22;6865;52.552;13.434;2023-08-08T07:57:01;17.00;99.90
13589;DHT22;6865;52.552;13.434;2023-08-08T07:59:28;17.10;99.90
13589;DHT22;6865;52.552;13.434;2023-08-08T08:01:54;17.10;99.90
13589;DHT22;6865;52.552;13.434;2023-08-08T08:04:21;17.20;99.90
13589;DHT22;6865;52.552;13.434;2023-08-08T08:06:48;17.30;99.90
13589;DHT22;6865;52.552;13.434;2023-08-08T08:09:14;17.20;99.90
13589;DHT22;6865;52.552;13.434;2023-08-08T08:11:41;17.40;99.90
13589;DHT22;6865;52.552;13.434;2023-08-08T08:14:08;17.40;99.90
13589;DHT22;6865;52.552;13.434;2023-08-08T08:16:34;17.60;99.90
13589;DHT22;6865;52.552;13.434;2023-08-08T08:19:01;17.70;99.90
13589;DHT22;6865;52.552;13.434;2023-08-08T08:21:28;17.60;99.90
13589;DHT22;6865;52.552;13.434;2023-08-08T08:23:56;17.70;99.90
13589;DHT22;6865;52.552;13.434;2023-08-08T08:26:22;17.90;99.90
13589;DHT22;6865;52.552;13.434;2023-08-08T08:28:49;17.90;99.90
13589;DHT22;6865;52.552;13.434;2023-08-08T08:31:16;17.90;99.90
13589;DHT22;6865;52.552;13.434;2023-08-08T08:33:42;17.80;99.90
13589;DHT22;6865;52.552;13.434;2023-08-08T08:36:09;17.60;99.90
13589;DHT22;6865;52.552;13.434;2023-08-08T08:38:38;17.60;99.90
13589;DHT22;6865;52.552;13.434;2023-08-08T08:41:05;17.80;99.90
13589;DHT22;6865;52.552;13.434;2023-08-08T08:43:32;18.00;99.90
13589;DHT22;6865;52.552;13.434;2023-08-08T08:46:00;18.30;99.90
13589;DHT22;6865;52.552;13.434;2023-08-08T08:48:30;18.00;99.90
13589;DHT22;6865;52.552;13.434;2023-08-08T08:50:58;17.80;99.90
13589;DHT22;6865;52.552;13.434;2023-08-08T08:53:25;17.70;99.90
13589;DHT22;6865;52.552;13.434;2023-08-08T08:55:52;17.60;99.90
13589;DHT22;6865;52.552;13.434;2023-08-08T08:58:21;17.50;99.90
13589;DHT22;6865;52.552;13.434;2023-08-08T09:00:48;17.60;99.90
13589;DHT22;6865;52.552;13.434;2023-08-08T09:03:16;17.60;99.90
13589;DHT22;6865;52.552;13.434;2023-08-08T09:05:43;17.60;99.90
13589;DHT22;6865;52.552;13.434;2023-08-08T09:08:11;17.70;99.90
13589;DHT22;6865;52.552;13.434;2023-08-08T09:10:38;17.90;99.90
13589;DHT22;6865;52.552;13.434;2023-08-08T09:13:05;18.00;99.90
13589;DHT22;6865;52.552;13.434;2023-08-08T09:15:33;17.90;99.90
13589;DHT22;6865;52.552;13.434;2023-08-08T09:18:01;18.10;99.90
13589;DHT22;6865;52.552;13.434;2023-08-08T09:20:27;18.20;99.90
13589;DHT22;6865;52.552;13.434;2023-08-08T09:22:55;18.40;99.90
13589;DHT22;6865;52.552;13.434;2023-08-08T09:25:22;18.50;99.90
13589;DHT22;6865;52.552;13.434;2023-08-08T09:27:52;18.60;99.90
13589;DHT22;6865;52.552;13.434;2023-08-08T09:30:20;18.80;99.90
13589;DHT22;6865;52.552;13.434;2023-08-08T09:32:46;18.70;99.90
13589;DHT22;6865;52.552;13.434;2023-08-08T09:35:14;18.90;99.90
13589;DHT22;6865;52.552;13.434;2023-08-08T09:37:41;18.80;99.90
13589;DHT22;6865;52.552;13.434;2023-08-08T09:40:08;18.70;99.90
13589;DHT22;6865;52.552;13.434;2023-08-08T09:42:39;18.40;99.90
13589;DHT22;6865;52.552;13.434;2023-08-08T09:45:08;18.10;99.90
13589;DHT22;6865;52.552;13.434;2023-08-08T09:47:37;18.20;99.90
13589;DHT22;6865;52.552;13.434;2023-08-08T09:50:04;18.30;99.90
13589;DHT22;6865;52.552;13.434;2023-08-08T09:52:34;18.30;99.90
13589;DHT22;6865;52.552;13.434;2023-08-08T09:55:02;18.50;99.90
13589;DHT22;6865;52.552;13.434;2023-08-08T09:57:29;18.50;99.90
13589;DHT22;6865;52.552;13.434;2023-08-08T09:59:57;18.40;99.90
13589;DHT22;6865;52.552;13.434;2023-08-08T10:02:24;18.10;99.90
13589;DHT22;6865;52.552;13.434;2023-08-08T10:04:52;18.00;99.90
13589;DHT22;6865;52.552;13.434;2023-08-08T10:07:19;17.50;99.90
13589;DHT22;6865;52.552;13.434;2023-08-08T10:14:57;16.50;99.90
13589;DHT22;6865;52.552;13.434;2023-08-08T10:17:25;16.30;99.90
13589;DHT22;6865;52.552;13.434;2023-08-08T10:19:55;16.60;99.90
13589;DHT22;6865;52.552;13.434;2023-08-08T10:22:24;16.80;99.90
13589;DHT22;6865;52.552;13.434;2023-08-08T10:24:52;16.90;99.90
13589;DHT22;6865;52.552;13.434;2023-08-08T10:27:36;16.80;99.90
13589;DHT22;6865;52.552;13.434;2023-08-08T10:30:07;16.90;99.90
13589;DHT22;6865;52.552;13.434;2023-08-08T10:32:40;16.90;99.90
13589;DHT22;6865;52.552;13.434;2023-08-08T10:35:08;16.80;99.90
13589;DHT22;6865;52.552;13.434;2023-08-08T10:37:36;17.00;99.90
13589;DHT22;6865;52.552;13.434;2023-08-08T10:40:05;17.30;99.90
13589;DHT22;6865;52.552;13.434;2023-08-08T10:42:40;17.60;99.90
13589;DHT22;6865;52.552;13.434;2023-08-08T10:45:14;17.70;99.90
13589;DHT22;6865;52.552;13.434;2023-08-08T10:47:42;17.80;99.90
13589;DHT22;6865;52.552;13.434;2023-08-08T10:50:11;17.90;99.90
13589;DHT22;6865;52.552;13.434;2023-08-08T10:55:24;17.60;99.90
13589;DHT22;6865;52.552;13.434;2023-08-08T10:58:06;17.50;99.90
13589;DHT22;6865;52.552;13.434;2023-08-08T11:00:35;17.30;99.90
13589;DHT22;6865;52.552;13.434;2023-08-08T11:03:03;17.40;99.90
13589;DHT22;6865;52.552;13.434;2023-08-08T11:05:34;17.30;99.90
13589;DHT22;6865;52.552;13.434;2023-08-08T11:08:01;17.30;99.90
13589;DHT22;6865;52.552;13.434;2023-08-08T11:10:28;17.40;99.90
13589;DHT22;6865;52.552;13.434;2023-08-08T11:13:02;17.60;99.90
13589;DHT22;6865;52.552;13.434;2023-08-08T11:15:32;17.90;99.90
13589;DHT22;6865;52.552;13.434;2023-08-08T11:18:00;18.10;99.90
13589;DHT22;6865;52.552;13.434;2023-08-08T11:20:32;18.30;99.90
13589;DHT22;6865;52.552;13.434;2023-08-08T11:23:00;18.40;99.90
13589;DHT22;6865;52.552;13.434;2023-08-08T11:25:28;18.50;99.90
13589;DHT22;6865;52.552;13.434;2023-08-08T11:27:56;18.70;99.90
13589;DHT22;6865;52.552;13.434;2023-08-08T11:30:24;18.80;99.90
13589;DHT22;6865;52.552;13.434;2023-08-08T11:32:54;18.70;99.90
13589;DHT22;6865;52.552;13.434;2023-08-08T11:35:25;18.30;99.90
13589;DHT22;6865;52.552;13.434;2023-08-08T11:37:53;18.00;99.90
13589;DHT22;6865;52.552;13.434;2023-08-08T11:40:20;17.80;99.90
13589;DHT22;6865;52.552;13.434;2023-08-08T11:42:48;17.70;99.90
13589;DHT22;6865;52.552;13.434;2023-08-08T11:45:17;17.60;99.90
13589;DHT22;6865;52.552;13.434;2023-08-08T11:47:49;17.50;99.90
13589;DHT22;6865;52.552;13.434;2023-08-08T11:50:19;17.30;99.90
13589;DHT22;6865;52.552;13.434;2023-08-08T11:52:46;17.40;99.90
13589;DHT22;6865;52.552;13.434;2023-08-08T11:55:13;17.40;99.90
13589;DHT22;6865;52.552;13.434;2023-08-08T11:57:40;17.40;99.90
13589;DHT22;6865;52.552;13.434;2023-08-08T12:00:09;17.40;99.90
13589;DHT22;6865;52.552;13.434;2023-08-08T12:02:43;17.60;99.90
13589;DHT22;6865;52.552;13.434;2023-08-08T12:05:11;17.70;99.90
13589;DHT22;6865;52.552;13.434;2023-08-08T12:07:40;17.90;99.90
13589;DHT22;6865;52.552;13.434;2023-08-08T12:10:15;18.00;99.90
13589;DHT22;6865;52.552;13.434;2023-08-08T12:12:46;18.20;99.90
13589;DHT22;6865;52.552;13.434;2023-08-08T12:15:14;18.30;99.90
13589;DHT22;6865;52.552;13.434;2023-08-08T12:17:43;18.50;99.90
13589;DHT22;6865;52.552;13.434;2023-08-08T12:20:10;18.60;99.90
13589;DHT22;6865;52.552;13.434;2023-08-08T12:22:37;18.60;99.90
13589;DHT22;6865;52.552;13.434;2023-08-08T12:25:04;18.80;99.90
13589;DHT22;6865;52.552;13.434;2023-08-08T12:27:31;18.90;99.90
13589;DHT22;6865;52.552;13.434;2023-08-08T12:29:58;18.90;99.90
13589;DHT22;6865;52.552;13.434;2023-08-08T12:32:26;19.10;99.90
13589;DHT22;6865;52.552;13.434;2023-08-08T12:34:55;19.20;99.90
13589;DHT22;6865;52.552;13.434;2023-08-08T12:37:23;19.30;99.90
13589;DHT22;6865;52.552;13.434;2023-08-08T12:39:51;19.40;99.90
13589;DHT22;6865;52.552;13.434;2023-08-08T12:42:18;19.50;99.90
13589;DHT22;6865;52.552;13.434;2023-08-08T12:44:45;19.50;99.90
13589;DHT22;6865;52.552;13.434;2023-08-08T12:47:13;19.60;99.90
13589;DHT22;6865;52.552;13.434;2023-08-08T12:49:41;19.50;99.90
13589;DHT22;6865;52.552;13.434;2023-08-08T12:52:08;19.20;99.90
13589;DHT22;6865;52.552;13.434;2023-08-08T12:54:36;19.00;99.90
13589;DHT22;6865;52.552;13.434;2023-08-08T12:57:03;19.10;99.90
13589;DHT22;6865;52.552;13.434;2023-08-08T12:59:30;19.10;99.90
13589;DHT22;6865;52.552;13.434;2023-08-08T13:01:57;19.10;99.90
13589;DHT22;6865;52.552;13.434;2023-08-08T13:04:25;19.30;99.90
13589;DHT22;6865;52.552;13.434;2023-08-08T13:06:52;19.50;99.90
13589;DHT22;6865;52.552;13.434;2023-08-08T13:09:19;19.60;99.90
13589;DHT22;6865;52.552;13.434;2023-08-08T13:11:46;19.50;99.90
13589;DHT22;6865;52.552;13.434;2023-08-08T13:14:13;19.60;99.90
13589;DHT22;6865;52.552;13.434;2023-08-08T13:16:39;19.70;99.90
13589;DHT22;6865;52.552;13.434;2023-08-08T13:19:06;19.70;99.00
13589;DHT22;6865;52.552;13.434;2023-08-08T13:21:33;19.90;98.10
13589;DHT22;6865;52.552;13.434;2023-08-08T13:24:00;20.00;97.10
13589;DHT22;6865;52.552;13.434;2023-08-08T13:26:27;20.00;96.80
13589;DHT22;6865;52.552;13.434;2023-08-08T13:28:53;20.10;96.40
13589;DHT22;6865;52.552;13.434;2023-08-08T13:31:20;20.20;95.30
13589;DHT22;6865;52.552;13.434;2023-08-08T13:33:47;20.00;95.40
13589;DHT22;6865;52.552;13.434;2023-08-08T13:36:14;20.00;95.70
13589;DHT22;6865;52.552;13.434;2023-08-08T13:38:40;19.80;96.10
13589;DHT22;6865;52.552;13.434;2023-08-08T13:41:07;19.50;96.30
13589;DHT22;6865;52.552;13.434;2023-08-08T13:43:34;19.40;97.10
13589;DHT22;6865;52.552;13.434;2023-08-08T13:46:00;19.20;98.30
13589;DHT22;6865;52.552;13.434;2023-08-08T13:48:29;18.50;99.90
13589;DHT22;6865;52.552;13.434;2023-08-08T13:50:56;17.80;99.90
13589;DHT22;6865;52.552;13.434;2023-08-08T13:53:23;17.10;99.90
13589;DHT22;6865;52.552;13.434;2023-08-08T13:55:49;16.40;99.90
13589;DHT22;6865;52.552;13.434;2023-08-08T13:58:16;16.10;99.90
13589;DHT22;6865;52.552;13.434;2023-08-08T14:00:42;16.10;99.90
13589;DHT22;6865;52.552;13.434;2023-08-08T14:03:09;16.10;99.90
13589;DHT22;6865;52.552;13.434;2023-08-08T14:05:36;16.20;99.90
13589;DHT22;6865;52.552;13.434;2023-08-08T14:08:03;16.40;99.90
13589;DHT22;6865;52.552;13.434;2023-08-08T14:10:31;16.80;99.90
13589;DHT22;6865;52.552;13.434;2023-08-08T14:12:57;17.10;99.90
13589;DHT22;6865;52.552;13.434;2023-08-08T14:15:24;17.40;99.90
13589;DHT22;6865;52.552;13.434;2023-08-08T14:17:51;17.50;99.90
13589;DHT22;6865;52.552;13.434;2023-08-08T14:20:18;17.50;99.90
13589;DHT22;6865;52.552;13.434;2023-08-08T14:22:45;17.40;99.90
13589;DHT22;6865;52.552;13.434;2023-08-08T14:25:15;17.40;99.90
13589;DHT22;6865;52.552;13.434;2023-08-08T14:27:42;17.30;99.90
13589;DHT22;6865;52.552;13.434;2023-08-08T14:30:09;17.40;99.90
13589;DHT22;6865;52.552;13.434;2023-08-08T14:32:36;17.40;99.90
13589;DHT22;6865;52.552;13.434;2023-08-08T14:35:04;17.50;99.90
13589;DHT22;6865;52.552;13.434;2023-08-08T14:37:31;17.60;99.90
13589;DHT22;6865;52.552;13.434;2023-08-08T14:39:58;17.70;99.90
13589;DHT22;6865;52.552;13.434;2023-08-08T14:42:25;17.80;99.90
13589;DHT22;6865;52.552;13.434;2023-08-08T14:44:51;17.90;99.90
13589;DHT22;6865;52.552;13.434;2023-08-08T14:47:18;17.90;99.90
13589;DHT22;6865;52.552;13.434;2023-08-08T14:49:45;18.10;99.90
13589;DHT22;6865;52.552;13.434;2023-08-08T14:52:11;18.30;99.90
13589;DHT22;6865;52.552;13.434;2023-08-08T14:54:39;18.30;99.90
13589;DHT22;6865;52.552;13.434;2023-08-08T14:57:06;18.40;99.90
13589;DHT22;6865;52.552;13.434;2023-08-08T14:59:32;18.40;99.90
13589;DHT22;6865;52.552;13.434;2023-08-08T15:01:59;18.30;99.90
13589;DHT22;6865;52.552;13.434;2023-08-08T15:04:26;18.30;99.90
13589;DHT22;6865;52.552;13.434;2023-08-08T15:06:52;18.30;99.90
13589;DHT22;6865;52.552;13.434;2023-08-08T15:09:19;18.20;99.90
13589;DHT22;6865;52.552;13.434;2023-08-08T15:11:46;18.10;99.90
13589;DHT22;6865;52.552;13.434;2023-08-08T15:14:12;18.30;99.90
13589;DHT22;6865;52.552;13.434;2023-08-08T15:16:39;18.30;99.90
13589;DHT22;6865;52.552;13.434;2023-08-08T15:19:06;18.10;99.90
13589;DHT22;6865;52.552;13.434;2023-08-08T15:21:32;18.00;99.90
13589;DHT22;6865;52.552;13.434;2023-08-08T15:23:59;18.00;99.90
13589;DHT22;6865;52.552;13.434;2023-08-08T15:26:26;18.00;99.90
13589;DHT22;6865;52.552;13.434;2023-08-08T15:28:52;18.00;99.90
13589;DHT22;6865;52.552;13.434;2023-08-08T15:31:19;17.90;99.90
13589;DHT22;6865;52.552;13.434;2023-08-08T15:33:46;17.80;99.90
13589;DHT22;6865;52.552;13.434;2023-08-08T15:36:12;17.40;99.90
13589;DHT22;6865;52.552;13.434;2023-08-08T15:38:40;17.10;99.90
13589;DHT22;6865;52.552;13.434;2023-08-08T15:41:06;16.70;99.90
13589;DHT22;6865;52.552;13.434;2023-08-08T15:43:34;16.30;99.90